Time;durP1;ratioP1;P1;durP2;ratioP2;P2;SDS_P1;SDS_P2;PMS_P1;PMS_P2;Temp;Humidity;BMP_temperature;BMP_pressure;BME280_temperature;BME280_humidity;BME280_pressure;Samples;Min_cycle;Max_cycle;Signal;HPM_P1;HPM_P2
2022/10/19 00:01:08;;;;;;;7.7;4;;;;;;;;;;;;;
2022/10/19 00:03:33;;;;;;;9.1;3.9;;;;;;;;;;;;;
2022/10/19 00:05:59;;;;;;;5.1;3.7;;;;;;;;;;;;;
2022/10/19 00:08:24;;;;;;;5.8;3.7;;;;;;;;;;;;;
2022/10/19 00:10:50;;;;;;;6.3;3.6;;;;;;;;;;;;;
2022/10/19 00:13:15;;;;;;;5.5;3.5;;;;;;;;;;;;;
2022/10/19 00:15:40;;;;;;;7.5;3.7;;;;;;;;;;;;;
2022/10/19 00:18:05;;;;;;;8.6;4.2;;;;;;;;;;;;;
2022/10/19 00:20:30;;;;;;;6.7;4;;;;;;;;;;;;;
2022/10/19 00:22:55;;;;;;;6.3;3.5;;;;;;;;;;;;;
2022/10/19 00:25:20;;;;;;;5.9;3.7;;;;;;;;;;;;;
2022/10/19 00:27:48;;;;;;;5.2;3.2;;;;;;;;;;;;;
2022/10/19 00:30:13;;;;;;;9.1;3.8;;;;;;;;;;;;;
2022/10/19 00:32:39;;;;;;;6.7;3.6;;;;;;;;;;;;;
2022/10/19 00:35:04;;;;;;;3.8;3.2;;;;;;;;;;;;;
2022/10/19 00:37:32;;;;;;;4.7;3.3;;;;;;;;;;;;;
2022/10/19 00:39:57;;;;;;;4.6;3.5;;;;;;;;;;;;;
2022/10/19 00:42:22;;;;;;;7.6;3.6;;;;;;;;;;;;;
2022/10/19 00:44:47;;;;;;;6;3.3;;;;;;;;;;;;;
2022/10/19 00:47:12;;;;;;;8.9;4.2;;;;;;;;;;;;;
2022/10/19 00:49:37;;;;;;;6.8;3.7;;;;;;;;;;;;;
2022/10/19 00:52:02;;;;;;;6.7;3.7;;;;;;;;;;;;;
2022/10/19 00:54:27;;;;;;;7.4;4.1;;;;;;;;;;;;;
2022/10/19 00:56:53;;;;;;;6;3.7;;;;;;;;;;;;;
2022/10/19 00:59:18;;;;;;;10.9;3.8;;;;;;;;;;;;;
2022/10/19 01:01:43;;;;;;;7.7;3.8;;;;;;;;;;;;;
2022/10/19 01:04:10;;;;;;;5.3;3.4;;;;;;;;;;;;;
2022/10/19 01:06:35;;;;;;;6.5;3.5;;;;;;;;;;;;;
2022/10/19 01:09:02;;;;;;;6.3;3.7;;;;;;;;;;;;;
2022/10/19 01:11:27;;;;;;;7.9;3.4;;;;;;;;;;;;;
2022/10/19 01:13:52;;;;;;;5.1;3.2;;;;;;;;;;;;;
2022/10/19 01:16:19;;;;;;;5.8;3.2;;;;;;;;;;;;;
2022/10/19 01:18:44;;;;;;;8.1;3.6;;;;;;;;;;;;;
2022/10/19 01:21:09;;;;;;;6.2;3.1;;;;;;;;;;;;;
2022/10/19 01:23:35;;;;;;;5.9;3.8;;;;;;;;;;;;;
2022/10/19 01:26:01;;;;;;;7.4;3.8;;;;;;;;;;;;;
2022/10/19 01:28:27;;;;;;;5.4;3.3;;;;;;;;;;;;;
2022/10/19 01:30:52;;;;;;;8.2;3.6;;;;;;;;;;;;;
2022/10/19 01:33:17;;;;;;;3.8;3;;;;;;;;;;;;;
2022/10/19 01:35:42;;;;;;;5.4;3.4;;;;;;;;;;;;;
2022/10/19 01:38:07;;;;;;;7.1;3.2;;;;;;;;;;;;;
2022/10/19 01:40:32;;;;;;;8;3.6;;;;;;;;;;;;;
2022/10/19 01:42:58;;;;;;;5.9;3.2;;;;;;;;;;;;;
2022/10/19 01:45:23;;;;;;;4.8;3.2;;;;;;;;;;;;;
2022/10/19 01:47:48;;;;;;;4.5;3.1;;;;;;;;;;;;;
2022/10/19 01:50:13;;;;;;;5.2;3.3;;;;;;;;;;;;;
2022/10/19 01:52:39;;;;;;;4.5;3.1;;;;;;;;;;;;;
2022/10/19 01:55:04;;;;;;;6.1;3.2;;;;;;;;;;;;;
2022/10/19 01:57:29;;;;;;;5.6;3.4;;;;;;;;;;;;;
2022/10/19 01:59:56;;;;;;;4.6;2.9;;;;;;;;;;;;;
2022/10/19 02:02:21;;;;;;;9.1;4.2;;;;;;;;;;;;;
2022/10/19 02:04:46;;;;;;;5.8;3.3;;;;;;;;;;;;;
2022/10/19 02:07:11;;;;;;;6.2;3.2;;;;;;;;;;;;;
2022/10/19 02:09:36;;;;;;;6.2;3.4;;;;;;;;;;;;;
2022/10/19 02:12:02;;;;;;;7.1;3.3;;;;;;;;;;;;;
2022/10/19 02:14:27;;;;;;;5.6;3.3;;;;;;;;;;;;;
2022/10/19 02:16:54;;;;;;;6.3;3.4;;;;;;;;;;;;;
2022/10/19 02:21:44;;;;;;;8.1;3.5;;;;;;;;;;;;;
2022/10/19 02:24:09;;;;;;;4.8;3.1;;;;;;;;;;;;;
2022/10/19 02:26:34;;;;;;;6.5;3.3;;;;;;;;;;;;;
2022/10/19 02:29:00;;;;;;;4.2;3.2;;;;;;;;;;;;;
2022/10/19 02:31:25;;;;;;;8.4;3.4;;;;;;;;;;;;;
2022/10/19 02:34:00;;;;;;;4.6;3.2;;;;;;;;;;;;;
2022/10/19 02:36:26;;;;;;;5.4;3.2;;;;;;;;;;;;;
2022/10/19 02:38:51;;;;;;;8;3.4;;;;;;;;;;;;;
2022/10/19 02:41:17;;;;;;;6.4;3.9;;;;;;;;;;;;;
2022/10/19 02:43:42;;;;;;;7.7;3.8;;;;;;;;;;;;;
2022/10/19 02:46:07;;;;;;;6.7;3.5;;;;;;;;;;;;;
2022/10/19 02:48:32;;;;;;;5;3.3;;;;;;;;;;;;;
2022/10/19 02:50:57;;;;;;;5.6;3.4;;;;;;;;;;;;;
2022/10/19 02:53:22;;;;;;;6.8;3.3;;;;;;;;;;;;;
2022/10/19 02:55:49;;;;;;;6.5;3.4;;;;;;;;;;;;;
2022/10/19 02:58:14;;;;;;;6.2;3.2;;;;;;;;;;;;;
2022/10/19 03:00:41;;;;;;;5.7;3.3;;;;;;;;;;;;;
2022/10/19 03:03:06;;;;;;;6.3;3.3;;;;;;;;;;;;;
2022/10/19 03:05:33;;;;;;;5.4;3.3;;;;;;;;;;;;;
2022/10/19 03:07:58;;;;;;;5.8;3.2;;;;;;;;;;;;;
2022/10/19 03:10:23;;;;;;;9.2;3.8;;;;;;;;;;;;;
2022/10/19 03:12:48;;;;;;;5.8;3.2;;;;;;;;;;;;;
2022/10/19 03:15:17;;;;;;;7.9;3.8;;;;;;;;;;;;;
2022/10/19 03:17:42;;;;;;;6.5;3.7;;;;;;;;;;;;;
2022/10/19 03:20:10;;;;;;;5.7;3.3;;;;;;;;;;;;;
2022/10/19 03:22:35;;;;;;;6.1;3.2;;;;;;;;;;;;;
2022/10/19 03:25:00;;;;;;;6.1;3.6;;;;;;;;;;;;;
2022/10/19 03:27:27;;;;;;;7.2;3.4;;;;;;;;;;;;;
2022/10/19 03:29:52;;;;;;;5.2;3.8;;;;;;;;;;;;;
2022/10/19 03:32:18;;;;;;;5.3;3.1;;;;;;;;;;;;;
2022/10/19 03:34:43;;;;;;;5.3;3.4;;;;;;;;;;;;;
2022/10/19 03:37:08;;;;;;;6.6;3.6;;;;;;;;;;;;;
2022/10/19 03:39:35;;;;;;;6;3.4;;;;;;;;;;;;;
2022/10/19 03:42:00;;;;;;;4.4;3.3;;;;;;;;;;;;;
2022/10/19 03:44:25;;;;;;;7.2;4;;;;;;;;;;;;;
2022/10/19 03:46:50;;;;;;;7;4.1;;;;;;;;;;;;;
2022/10/19 03:49:16;;;;;;;6.1;3.7;;;;;;;;;;;;;
2022/10/19 03:51:41;;;;;;;6.8;4.3;;;;;;;;;;;;;
2022/10/19 03:54:07;;;;;;;8.5;4;;;;;;;;;;;;;
2022/10/19 03:56:32;;;;;;;5.8;3.7;;;;;;;;;;;;;
2022/10/19 03:58:58;;;;;;;8.5;4.7;;;;;;;;;;;;;
2022/10/19 04:02:40;;;;;;;5.6;4.3;;;;;;;13.64;92.99707;945.8409;;;;
2022/10/19 04:05:05;;;;;;;6.5;4.2;;;;;;;13.52;93.56836;945.8401;;;;
2022/10/19 04:07:31;;;;;;;6.6;4.6;;;;;;;13.38;94.5957;945.8664;;;;
2022/10/19 04:09:59;;;;;;;7.9;4.5;;;;;;;13.36;94.73047;945.8511;;;;
2022/10/19 04:13:23;;;;;;;8.1;4.3;;;;;;;13.31;95.17773;945.8904;;;;
2022/10/19 04:15:48;;;;;;;6.2;3.8;;;;;;;13.3;95.32715;945.82;;;;
2022/10/19 04:18:13;;;;;;;7.3;3.5;;;;;;;13.25;95.55664;945.8362;;;;
2022/10/19 04:20:41;;;;;;;6.9;3.8;;;;;;;13.14;96.21094;945.8752;;;;
2022/10/19 04:23:04;;;;;;;6.2;3.9;;;;;;;13.16;95.83594;945.8234;;;;
2022/10/19 04:25:29;;;;;;;7.4;3.3;;;;;;;13.16;95.73242;945.8865;;;;
2022/10/19 04:28:09;;;;;;;12.1;4;;;;;;;13.2;95.45313;945.8441;;;;
2022/10/19 04:30:40;;;;;;;9.2;3.9;;;;;;;13.18;95.20801;945.8759;;;;
2022/10/19 04:33:10;;;;;;;5.5;3.7;;;;;;;13.13;95.63477;945.8478;;;;
2022/10/19 04:35:35;;;;;;;5.3;3.9;;;;;;;13.13;95.53125;945.867;;;;
2022/10/19 04:38:04;;;;;;;9.7;4.7;;;;;;;13.15;95.3623;945.7856;;;;
2022/10/19 04:40:29;;;;;;;7.2;4.6;;;;;;;13;96.12305;945.8628;;;;
2022/10/19 04:42:55;;;;;;;5.7;4;;;;;;;13.05;96.01855;945.8276;;;;
2022/10/19 04:45:26;;;;;;;6.4;3.9;;;;;;;13.08;95.61133;945.8848;;;;
2022/10/19 04:47:55;;;;;;;6;3.6;;;;;;;13.08;95.25488;945.8577;;;;
2022/10/19 04:50:20;;;;;;;7.4;3.6;;;;;;;13.1;94.98535;945.8491;;;;
2022/10/19 04:52:47;;;;;;;6.2;3.8;;;;;;;13.14;94.92383;945.8344;;;;
2022/10/19 04:55:12;;;;;;;5.9;3.7;;;;;;;13.06;95.125;945.8342;;;;
2022/10/19 04:57:40;;;;;;;7.9;4.6;;;;;;;13.07;95.45996;945.8103;;;;
2022/10/19 05:00:05;;;;;;;7.7;4.1;;;;;;;13.03;95.49609;945.8331;;;;
2022/10/19 05:02:36;;;;;;;16.5;7.2;;;;;;;13.02;95.40234;945.8265;;;;
2022/10/19 05:05:04;;;;;;;14.5;6.9;;;;;;;13.03;95.60059;945.8731;;;;
2022/10/19 05:07:30;;;;;;;9.6;5.8;;;;;;;12.98;95.3252;945.8201;;;;
2022/10/19 05:09:58;;;;;;;10.5;6.4;;;;;;;12.99;95.38281;945.7642;;;;
2022/10/19 05:12:23;;;;;;;10.7;5.4;;;;;;;13.02;94.71484;945.8002;;;;
2022/10/19 05:14:48;;;;;;;14;6.7;;;;;;;13.03;94.42969;945.7996;;;;
2022/10/19 05:17:17;;;;;;;11.3;6.6;;;;;;;13.04;94.11035;945.7556;;;;
2022/10/19 05:19:42;;;;;;;8.4;5.5;;;;;;;12.97;94.08301;945.8176;;;;
2022/10/19 05:22:10;;;;;;;6.9;4.5;;;;;;;12.94;93.97168;945.6822;;;;
2022/10/19 05:24:35;;;;;;;5.2;4;;;;;;;12.93;93.82227;945.7189;;;;
2022/10/19 05:27:01;;;;;;;7.2;3.9;;;;;;;12.91;93.63477;945.7282;;;;
2022/10/19 05:29:29;;;;;;;5.2;3.8;;;;;;;12.9;93.55078;945.6905;;;;
2022/10/19 05:31:54;;;;;;;5.4;3.6;;;;;;;12.78;93.98438;945.7166;;;;
2022/10/19 05:34:22;;;;;;;7.2;4.2;;;;;;;12.59;95.14844;945.6627;;;;
2022/10/19 05:36:47;;;;;;;7.3;4.5;;;;;;;12.51;95.6123;945.652;;;;
2022/10/19 05:40:32;;;;;;;6.8;4.6;;;;;;;12.52;95.48828;945.5595;;;;
2022/10/19 05:42:59;;;;;;;9.7;4.7;;;;;;;12.41;95.80859;945.5369;;;;
2022/10/19 05:45:24;;;;;;;9.8;5;;;;;;;12.39;95.90723;945.4911;;;;
2022/10/19 05:47:55;;;;;;;9.1;4.6;;;;;;;12.39;95.99707;945.4791;;;;
2022/10/19 05:50:20;;;;;;;8.6;4.8;;;;;;;12.4;95.76074;945.5032;;;;
2022/10/19 05:52:50;;;;;;;5.5;3.9;;;;;;;12.45;94.625;945.4939;;;;
2022/10/19 05:55:15;;;;;;;8.3;4.1;;;;;;;12.45;93.62793;945.4811;;;;
2022/10/19 05:57:42;;;;;;;4.8;3.3;;;;;;;12.44;93.62598;945.4075;;;;
2022/10/19 06:00:07;;;;;;;6.1;3.4;;;;;;;12.42;93.72266;945.404;;;;
2022/10/19 06:05:06;;;;;;;6.7;4.2;;;;;;;12.31;94.30762;945.3614;;;;
2022/10/19 06:08:10;;;;;;;7.8;4.2;;;;;;;12.38;94.17188;945.3798;;;;
2022/10/19 06:10:39;;;;;;;6.9;3.7;;;;;;;12.42;93.62012;945.3959;;;;
2022/10/19 06:13:05;;;;;;;8;4.2;;;;;;;12.49;94.00195;945.4192;;;;
2022/10/19 06:15:30;;;;;;;8.4;4;;;;;;;12.56;93.95898;945.4274;;;;
2022/10/19 06:17:55;;;;;;;9.4;4;;;;;;;12.63;93.41406;945.4575;;;;
2022/10/19 06:20:21;;;;;;;9.1;4.2;;;;;;;12.61;93.17871;945.508;;;;
2022/10/19 06:22:46;;;;;;;6.8;3.6;;;;;;;12.58;92.38184;945.5044;;;;
2022/10/19 06:25:14;;;;;;;7.3;4.2;;;;;;;12.61;92.4541;945.464;;;;
2022/10/19 06:27:39;;;;;;;8.5;3.9;;;;;;;12.73;92.01074;945.5833;;;;
2022/10/19 06:30:28;;;;;;;8.4;3.7;;;;;;;12.94;90.61914;945.5478;;;;
2022/10/19 06:32:55;;;;;;;6.2;3.3;;;;;;;13.06;89.12793;945.5991;;;;
2022/10/19 06:35:20;;;;;;;7.3;3.6;;;;;;;13.01;89.38281;945.5647;;;;
2022/10/19 06:37:50;;;;;;;6.1;3.4;;;;;;;13.16;88.84961;945.5691;;;;
2022/10/19 06:40:15;;;;;;;5.9;3.7;;;;;;;13.25;88.62891;945.5851;;;;
2022/10/19 06:42:46;;;;;;;6.3;3.6;;;;;;;13.37;88.33105;945.532;;;;
2022/10/19 06:45:19;;;;;;;8.3;3.7;;;;;;;13.46;87.84375;945.5427;;;;
2022/10/19 06:47:49;;;;;;;5.9;3.9;;;;;;;13.58;88.57031;945.5703;;;;
2022/10/19 06:52:44;;;;;;;8.5;4.3;;;;;;;13.83;86.69824;945.5636;;;;
2022/10/19 06:55:09;;;;;;;7.9;4.1;;;;;;;13.85;86.73633;945.603;;;;
2022/10/19 06:57:34;;;;;;;8.7;4.1;;;;;;;13.95;86.72363;945.5942;;;;
2022/10/19 07:00:01;;;;;;;6.7;4;;;;;;;14.02;86.12598;945.6215;;;;
2022/10/19 07:02:26;;;;;;;5.9;3.9;;;;;;;14.22;86.08496;945.5633;;;;
2022/10/19 07:04:54;;;;;;;6.5;3.5;;;;;;;14.5;84.44629;945.6145;;;;
2022/10/19 07:07:20;;;;;;;6.6;3.6;;;;;;;;;;;;;
2022/10/19 07:09:45;;;;;;;6.5;3.6;;;;;;;;;;;;;
2022/10/19 07:12:11;;;;;;;5.8;3.1;;;;;;;;;;;;;
2022/10/19 07:14:38;;;;;;;8.4;3.9;;;;;;;;;;;;;
2022/10/19 07:17:01;;;;;;;10.8;4.4;;;;;;;;;;;;;
2022/10/19 07:19:28;;;;;;;6;3.6;;;;;;;;;;;;;
2022/10/19 07:21:53;;;;;;;5.1;3.5;;;;;;;;;;;;;
2022/10/19 07:24:19;;;;;;;5.4;3.1;;;;;;;;;;;;;
2022/10/19 07:26:44;;;;;;;6;3.1;;;;;;;;;;;;;
2022/10/19 07:29:10;;;;;;;7.2;3.4;;;;;;;;;;;;;
2022/10/19 07:31:36;;;;;;;10.1;4.2;;;;;;;;;;;;;
2022/10/19 07:34:02;;;;;;;9;4.2;;;;;;;;;;;;;
2022/10/19 07:36:28;;;;;;;10.1;3.8;;;;;;;;;;;;;
2022/10/19 07:38:54;;;;;;;7.6;3.3;;;;;;;;;;;;;
2022/10/19 07:41:19;;;;;;;7.9;3.4;;;;;;;;;;;;;
2022/10/19 07:43:46;;;;;;;7;2.7;;;;;;;;;;;;;
2022/10/19 07:46:11;;;;;;;5;2.2;;;;;;;;;;;;;
2022/10/19 07:48:36;;;;;;;4.2;2.4;;;;;;;;;;;;;
2022/10/19 07:51:02;;;;;;;4.1;2.2;;;;;;;;;;;;;
2022/10/19 07:53:29;;;;;;;4;2.8;;;;;;;;;;;;;
2022/10/19 07:55:54;;;;;;;3.5;2.5;;;;;;;;;;;;;
2022/10/19 07:58:19;;;;;;;7.4;2.7;;;;;;;;;;;;;
2022/10/19 08:00:44;;;;;;;5.2;3;;;;;;;;;;;;;
2022/10/19 08:03:11;;;;;;;6.6;3;;;;;;;;;;;;;
2022/10/19 08:05:36;;;;;;;6.9;2.8;;;;;;;;;;;;;
2022/10/19 08:08:01;;;;;;;6;2.9;;;;;;;;;;;;;
2022/10/19 08:10:27;;;;;;;5.8;2.8;;;;;;;;;;;;;
2022/10/19 08:13:01;;;;;;;6.2;3;;;;;;;;;;;;;
2022/10/19 08:15:27;;;;;;;5;2.7;;;;;;;;;;;;;
2022/10/19 08:17:53;;;;;;;4.1;2.9;;;;;;;;;;;;;
2022/10/19 08:20:19;;;;;;;5.6;2.5;;;;;;;;;;;;;
2022/10/19 08:22:45;;;;;;;5.3;2.8;;;;;;;;;;;;;
2022/10/19 08:25:12;;;;;;;5.7;2.8;;;;;;;;;;;;;
2022/10/19 08:27:37;;;;;;;5.3;2.6;;;;;;;;;;;;;
2022/10/19 08:30:02;;;;;;;7.2;2.6;;;;;;;;;;;;;
2022/10/19 08:32:27;;;;;;;5.7;2.6;;;;;;;;;;;;;
2022/10/19 08:34:53;;;;;;;5.3;2.7;;;;;;;;;;;;;
2022/10/19 08:37:19;;;;;;;5.6;2.8;;;;;;;;;;;;;
2022/10/19 08:39:44;;;;;;;6.2;2.7;;;;;;;;;;;;;
2022/10/19 08:42:09;;;;;;;5.3;2.5;;;;;;;;;;;;;
2022/10/19 08:44:34;;;;;;;3.7;2.6;;;;;;;;;;;;;
2022/10/19 08:46:59;;;;;;;3.5;2.6;;;;;;;;;;;;;
2022/10/19 08:49:24;;;;;;;4.6;2.2;;;;;;;;;;;;;
2022/10/19 08:51:49;;;;;;;5.2;2.5;;;;;;;;;;;;;
2022/10/19 08:54:15;;;;;;;7.4;2.6;;;;;;;;;;;;;
2022/10/19 08:56:40;;;;;;;5.5;2.5;;;;;;;;;;;;;
2022/10/19 08:59:05;;;;;;;3.9;2.5;;;;;;;;;;;;;
2022/10/19 09:01:30;;;;;;;5.8;2.5;;;;;;;;;;;;;
2022/10/19 09:03:58;;;;;;;4.1;2.4;;;;;;;;;;;;;
2022/10/19 09:06:35;;;;;;;7.5;3.2;;;;;;;;;;;;;
2022/10/19 09:09:00;;;;;;;6;3;;;;;;;;;;;;;
2022/10/19 09:11:26;;;;;;;4.4;2.8;;;;;;;;;;;;;
2022/10/19 09:13:51;;;;;;;7.4;3.3;;;;;;;;;;;;;
2022/10/19 09:16:16;;;;;;;4.7;3;;;;;;;;;;;;;
2022/10/19 09:18:41;;;;;;;5.2;3.3;;;;;;;;;;;;;
2022/10/19 09:21:07;;;;;;;4.9;2.8;;;;;;;;;;;;;
2022/10/19 09:23:32;;;;;;;5.6;2.8;;;;;;;;;;;;;
2022/10/19 09:25:58;;;;;;;4.5;3;;;;;;;;;;;;;
2022/10/19 09:28:23;;;;;;;5.8;3.2;;;;;;;;;;;;;
2022/10/19 09:30:48;;;;;;;5.6;3.1;;;;;;;;;;;;;
2022/10/19 09:33:13;;;;;;;6.6;3.2;;;;;;;;;;;;;
2022/10/19 09:35:38;;;;;;;5.7;3.1;;;;;;;;;;;;;
2022/10/19 09:38:03;;;;;;;4.2;2.9;;;;;;;;;;;;;
2022/10/19 09:40:30;;;;;;;7.7;3.2;;;;;;;;;;;;;
2022/10/19 09:42:58;;;;;;;4.8;3.2;;;;;;;;;;;;;
2022/10/19 09:45:20;;;;;;;5.8;3;;;;;;;;;;;;;
2022/10/19 09:47:46;;;;;;;4.8;2.8;;;;;;;;;;;;;
2022/10/19 09:50:12;;;;;;;5;3.1;;;;;;;;;;;;;
2022/10/19 09:52:39;;;;;;;8.1;3.1;;;;;;;;;;;;;
2022/10/19 09:55:04;;;;;;;5.3;3;;;;;;;;;;;;;
2022/10/19 09:57:29;;;;;;;5.5;3.2;;;;;;;;;;;;;
2022/10/19 09:59:55;;;;;;;6;3.3;;;;;;;;;;;;;
2022/10/19 10:02:21;;;;;;;5.1;3.1;;;;;;;;;;;;;
2022/10/19 10:04:48;;;;;;;5.5;3.3;;;;;;;;;;;;;
2022/10/19 10:07:13;;;;;;;7.9;3.8;;;;;;;;;;;;;
2022/10/19 10:09:38;;;;;;;3.9;2.9;;;;;;;;;;;;;
2022/10/19 10:12:03;;;;;;;8.4;3.6;;;;;;;;;;;;;
2022/10/19 10:14:28;;;;;;;8.4;3.3;;;;;;;;;;;;;
2022/10/19 10:16:54;;;;;;;6.1;3.7;;;;;;;;;;;;;
2022/10/19 10:19:19;;;;;;;6.8;3.7;;;;;;;;;;;;;
2022/10/19 10:21:44;;;;;;;7.7;3.5;;;;;;;;;;;;;
2022/10/19 10:24:09;;;;;;;9.5;3.7;;;;;;;;;;;;;
2022/10/19 10:26:35;;;;;;;5.8;3.9;;;;;;;;;;;;;
2022/10/19 10:29:00;;;;;;;6.5;3.3;;;;;;;;;;;;;
2022/10/19 10:31:26;;;;;;;6.1;3.7;;;;;;;;;;;;;
2022/10/19 10:33:51;;;;;;;7.6;4;;;;;;;;;;;;;
2022/10/19 10:36:18;;;;;;;6.8;3.5;;;;;;;;;;;;;
2022/10/19 10:38:44;;;;;;;4.9;3.6;;;;;;;;;;;;;
2022/10/19 10:41:09;;;;;;;5;3.2;;;;;;;;;;;;;
2022/10/19 10:43:34;;;;;;;6.7;3.5;;;;;;;;;;;;;
2022/10/19 10:46:00;;;;;;;4.2;3.2;;;;;;;;;;;;;
2022/10/19 10:48:25;;;;;;;6.1;3.1;;;;;;;;;;;;;
2022/10/19 10:50:52;;;;;;;5.3;3.4;;;;;;;;;;;;;
2022/10/19 10:53:17;;;;;;;5.5;3.6;;;;;;;;;;;;;
2022/10/19 10:55:42;;;;;;;6;3.6;;;;;;;;;;;;;
2022/10/19 10:58:07;;;;;;;6.6;3.3;;;;;;;;;;;;;
2022/10/19 11:00:33;;;;;;;6;3.1;;;;;;;;;;;;;
2022/10/19 11:03:00;;;;;;;6.5;3.6;;;;;;;;;;;;;
2022/10/19 11:05:25;;;;;;;6;3.4;;;;;;;;;;;;;
2022/10/19 11:07:52;;;;;;;5.3;3.4;;;;;;;;;;;;;
2022/10/19 11:10:17;;;;;;;4.7;2.9;;;;;;;;;;;;;
2022/10/19 11:12:42;;;;;;;5.8;3.7;;;;;;;;;;;;;
2022/10/19 11:15:08;;;;;;;6.1;3.6;;;;;;;;;;;;;
2022/10/19 11:17:33;;;;;;;8.6;3.9;;;;;;;;;;;;;
2022/10/19 11:19:58;;;;;;;5.4;3.2;;;;;;;;;;;;;
2022/10/19 11:22:27;;;;;;;4.2;3;;;;;;;;;;;;;
2022/10/19 11:24:51;;;;;;;5.3;3.4;;;;;;;;;;;;;
2022/10/19 11:27:16;;;;;;;4.9;3.4;;;;;;;;;;;;;
2022/10/19 11:29:42;;;;;;;7.1;3.8;;;;;;;;;;;;;
2022/10/19 11:32:09;;;;;;;6.6;3.4;;;;;;;;;;;;;
2022/10/19 11:34:35;;;;;;;6.1;3.3;;;;;;;;;;;;;
2022/10/19 11:37:03;;;;;;;9.5;4.1;;;;;;;;;;;;;
2022/10/19 11:39:28;;;;;;;4;3.5;;;;;;;;;;;;;
2022/10/19 11:41:54;;;;;;;5.7;3.5;;;;;;;;;;;;;
2022/10/19 11:44:19;;;;;;;4.9;3.3;;;;;;;;;;;;;
2022/10/19 11:46:44;;;;;;;6.6;3.5;;;;;;;;;;;;;
2022/10/19 11:49:09;;;;;;;4.2;3.3;;;;;;;;;;;;;
2022/10/19 11:51:35;;;;;;;5.3;3.5;;;;;;;;;;;;;
2022/10/19 11:54:00;;;;;;;5;3.6;;;;;;;;;;;;;
2022/10/19 11:56:27;;;;;;;6;3.2;;;;;;;;;;;;;
2022/10/19 11:58:50;;;;;;;5.2;3.7;;;;;;;;;;;;;
2022/10/19 12:01:15;;;;;;;6;3.7;;;;;;;;;;;;;
2022/10/19 12:03:40;;;;;;;5.2;3.6;;;;;;;;;;;;;
2022/10/19 12:06:07;;;;;;;4.7;3.3;;;;;;;;;;;;;
2022/10/19 12:08:33;;;;;;;5.1;3.5;;;;;;;;;;;;;
2022/10/19 12:10:59;;;;;;;5.6;3.1;;;;;;;;;;;;;
2022/10/19 12:13:24;;;;;;;6;3.3;;;;;;;;;;;;;
2022/10/19 12:15:51;;;;;;;6.1;3.2;;;;;;;;;;;;;
2022/10/19 12:18:14;;;;;;;6.4;3.2;;;;;;;;;;;;;
2022/10/19 12:20:40;;;;;;;5;3.4;;;;;;;;;;;;;
2022/10/19 12:23:06;;;;;;;12.2;3.4;;;;;;;;;;;;;
2022/10/19 12:25:30;;;;;;;4.3;2.9;;;;;;;;;;;;;
2022/10/19 12:27:56;;;;;;;4.3;3;;;;;;;;;;;;;
2022/10/19 12:30:21;;;;;;;5.9;3.5;;;;;;;;;;;;;
2022/10/19 12:32:48;;;;;;;5.1;3.5;;;;;;;;;;;;;
2022/10/19 12:35:13;;;;;;;4.1;3.3;;;;;;;;;;;;;
2022/10/19 12:37:38;;;;;;;4.8;3.3;;;;;;;;;;;;;
2022/10/19 12:40:03;;;;;;;6.8;3.7;;;;;;;;;;;;;
2022/10/19 12:42:28;;;;;;;4.3;3.6;;;;;;;;;;;;;
2022/10/19 12:44:53;;;;;;;3.6;3;;;;;;;;;;;;;
2022/10/19 12:47:18;;;;;;;3.8;3;;;;;;;;;;;;;
2022/10/19 12:49:43;;;;;;;5.1;3.8;;;;;;;;;;;;;
2022/10/19 12:52:08;;;;;;;5.6;3.9;;;;;;;;;;;;;
2022/10/19 12:54:34;;;;;;;4.5;3.6;;;;;;;;;;;;;
2022/10/19 12:56:59;;;;;;;6.5;3.7;;;;;;;;;;;;;
2022/10/19 12:59:25;;;;;;;4.7;3.9;;;;;;;;;;;;;
2022/10/19 13:01:50;;;;;;;6.1;3;;;;;;;;;;;;;
2022/10/19 13:04:15;;;;;;;4.5;3.2;;;;;;;;;;;;;
2022/10/19 13:06:41;;;;;;;6.3;3.3;;;;;;;;;;;;;
2022/10/19 13:09:06;;;;;;;4.8;3.9;;;;;;;;;;;;;
2022/10/19 13:11:33;;;;;;;5.1;3.7;;;;;;;;;;;;;
2022/10/19 13:13:59;;;;;;;6.8;4.1;;;;;;;;;;;;;
2022/10/19 13:16:25;;;;;;;5.6;3.6;;;;;;;;;;;;;
2022/10/19 13:18:50;;;;;;;6.9;4.1;;;;;;;;;;;;;
2022/10/19 13:21:15;;;;;;;6.1;4;;;;;;;;;;;;;
2022/10/19 13:23:41;;;;;;;6.3;4;;;;;;;;;;;;;
2022/10/19 13:26:05;;;;;;;4.2;3.5;;;;;;;;;;;;;
2022/10/19 13:28:30;;;;;;;5.1;3.8;;;;;;;;;;;;;
2022/10/19 13:30:56;;;;;;;6;3.6;;;;;;;;;;;;;
2022/10/19 13:33:21;;;;;;;4.9;3.7;;;;;;;;;;;;;
2022/10/19 13:35:46;;;;;;;6.6;3.8;;;;;;;;;;;;;
2022/10/19 13:38:13;;;;;;;4.7;3.8;;;;;;;;;;;;;
2022/10/19 13:40:38;;;;;;;6.7;4.2;;;;;;;;;;;;;
2022/10/19 13:43:03;;;;;;;5.6;4;;;;;;;;;;;;;
2022/10/19 13:45:28;;;;;;;5.4;3.8;;;;;;;;;;;;;
2022/10/19 13:47:54;;;;;;;5.9;3.9;;;;;;;;;;;;;
2022/10/19 13:50:19;;;;;;;7.2;4.4;;;;;;;;;;;;;
2022/10/19 13:52:44;;;;;;;5.9;4.2;;;;;;;;;;;;;
2022/10/19 13:55:09;;;;;;;7.5;4.4;;;;;;;;;;;;;
2022/10/19 13:57:34;;;;;;;6.5;4.1;;;;;;;;;;;;;
2022/10/19 14:00:00;;;;;;;5.6;4;;;;;;;;;;;;;
2022/10/19 14:02:24;;;;;;;6.5;4.1;;;;;;;;;;;;;
2022/10/19 14:04:50;;;;;;;5;3.9;;;;;;;;;;;;;
2022/10/19 14:07:15;;;;;;;5.5;3.9;;;;;;;;;;;;;
2022/10/19 14:09:40;;;;;;;5.7;4.1;;;;;;;;;;;;;
2022/10/19 14:12:05;;;;;;;9;4.9;;;;;;;;;;;;;
2022/10/19 14:14:31;;;;;;;7;4.2;;;;;;;;;;;;;
2022/10/19 14:16:59;;;;;;;5.6;3.8;;;;;;;;;;;;;
2022/10/19 14:19:25;;;;;;;5.6;4.2;;;;;;;;;;;;;
2022/10/19 14:21:49;;;;;;;7.7;4.7;;;;;;;;;;;;;
2022/10/19 14:24:14;;;;;;;8.1;4.5;;;;;;;;;;;;;
2022/10/19 14:26:39;;;;;;;6.5;4.2;;;;;;;;;;;;;
2022/10/19 14:29:04;;;;;;;7;4.1;;;;;;;;;;;;;
2022/10/19 14:31:30;;;;;;;6;4.5;;;;;;;;;;;;;
2022/10/19 14:33:55;;;;;;;6.6;4.3;;;;;;;;;;;;;
2022/10/19 14:36:22;;;;;;;4.7;3.9;;;;;;;;;;;;;
2022/10/19 14:38:47;;;;;;;6.5;4.1;;;;;;;;;;;;;
2022/10/19 14:41:12;;;;;;;6.4;3.7;;;;;;;;;;;;;
2022/10/19 14:43:37;;;;;;;6.6;4;;;;;;;;;;;;;
2022/10/19 14:46:02;;;;;;;7.5;5;;;;;;;;;;;;;
2022/10/19 14:48:27;;;;;;;7.3;4.6;;;;;;;;;;;;;
2022/10/19 14:50:53;;;;;;;4.7;4.2;;;;;;;;;;;;;
2022/10/19 14:53:18;;;;;;;7.4;4.8;;;;;;;;;;;;;
2022/10/19 14:55:44;;;;;;;7.8;4.6;;;;;;;;;;;;;
2022/10/19 14:58:09;;;;;;;5.8;4.2;;;;;;;;;;;;;
2022/10/19 15:00:36;;;;;;;6.4;4.5;;;;;;;;;;;;;
2022/10/19 15:03:01;;;;;;;5.2;4.5;;;;;;;;;;;;;
2022/10/19 15:05:29;;;;;;;5.7;4.5;;;;;;;;;;;;;
2022/10/19 15:07:55;;;;;;;7.2;4.4;;;;;;;;;;;;;
2022/10/19 15:10:19;;;;;;;5.5;4.2;;;;;;;;;;;;;
2022/10/19 15:12:46;;;;;;;6.8;4.6;;;;;;;;;;;;;
2022/10/19 15:15:11;;;;;;;7.4;4.4;;;;;;;;;;;;;
2022/10/19 15:17:37;;;;;;;9.6;4.9;;;;;;;;;;;;;
2022/10/19 15:20:02;;;;;;;9.8;4.7;;;;;;;;;;;;;
2022/10/19 15:22:29;;;;;;;8.6;5.4;;;;;;;;;;;;;
2022/10/19 15:24:55;;;;;;;8.5;4.9;;;;;;;;;;;;;
2022/10/19 15:27:20;;;;;;;7.3;4.7;;;;;;;;;;;;;
2022/10/19 15:29:45;;;;;;;9.9;4.6;;;;;;;;;;;;;
2022/10/19 15:32:10;;;;;;;8.9;4.7;;;;;;;;;;;;;
2022/10/19 15:34:36;;;;;;;6.9;5;;;;;;;;;;;;;
2022/10/19 15:37:02;;;;;;;7.3;4.9;;;;;;;;;;;;;
2022/10/19 15:39:26;;;;;;;11.1;5.6;;;;;;;;;;;;;
2022/10/19 15:41:53;;;;;;;10.3;5.2;;;;;;;;;;;;;
2022/10/19 15:44:18;;;;;;;11.7;5.2;;;;;;;;;;;;;
2022/10/19 15:46:43;;;;;;;11.2;5.4;;;;;;;;;;;;;
2022/10/19 15:49:09;;;;;;;10.2;4.9;;;;;;;;;;;;;
2022/10/19 15:51:34;;;;;;;7.9;5;;;;;;;;;;;;;
2022/10/19 15:53:59;;;;;;;10;5.2;;;;;;;;;;;;;
2022/10/19 15:56:25;;;;;;;9.6;6;;;;;;;;;;;;;
2022/10/19 15:58:50;;;;;;;10.1;6.3;;;;;;;;;;;;;
2022/10/19 16:01:15;;;;;;;12.3;6.9;;;;;;;;;;;;;
2022/10/19 16:03:40;;;;;;;10.8;6.6;;;;;;;;;;;;;
2022/10/19 16:06:07;;;;;;;10.6;6.2;;;;;;;;;;;;;
2022/10/19 16:08:32;;;;;;;8.5;6.7;;;;;;;;;;;;;
2022/10/19 16:11:00;;;;;;;7.1;5.6;;;;;;;;;;;;;
2022/10/19 16:13:25;;;;;;;7.5;5.8;;;;;;;;;;;;;
2022/10/19 16:15:51;;;;;;;7.7;5.8;;;;;;;;;;;;;
2022/10/19 16:18:16;;;;;;;8.4;5.9;;;;;;;;;;;;;
2022/10/19 16:20:42;;;;;;;7.6;5.9;;;;;;;;;;;;;
2022/10/19 16:23:07;;;;;;;8.4;5.5;;;;;;;;;;;;;
2022/10/19 16:25:33;;;;;;;6.8;5.2;;;;;;;;;;;;;
2022/10/19 16:27:58;;;;;;;8.3;5.5;;;;;;;;;;;;;
2022/10/19 16:30:24;;;;;;;6.9;5.6;;;;;;;;;;;;;
2022/10/19 16:32:50;;;;;;;9.6;5.9;;;;;;;;;;;;;
2022/10/19 16:35:16;;;;;;;8.4;5.5;;;;;;;;;;;;;
2022/10/19 16:37:42;;;;;;;7;5.3;;;;;;;;;;;;;
2022/10/19 16:40:07;;;;;;;7.4;5.1;;;;;;;;;;;;;
2022/10/19 16:42:35;;;;;;;7.9;5.6;;;;;;;;;;;;;
2022/10/19 16:45:00;;;;;;;9.1;5.3;;;;;;;;;;;;;
2022/10/19 16:47:26;;;;;;;10.1;5.8;;;;;;;;;;;;;
2022/10/19 16:49:51;;;;;;;6.6;5.7;;;;;;;;;;;;;
2022/10/19 16:52:16;;;;;;;8.7;6.3;;;;;;;;;;;;;
2022/10/19 16:54:41;;;;;;;9.7;5.3;;;;;;;;;;;;;
2022/10/19 16:57:06;;;;;;;10.4;6;;;;;;;;;;;;;
2022/10/19 16:59:32;;;;;;;11.2;6.7;;;;;;;;;;;;;
2022/10/19 17:01:58;;;;;;;11;6.2;;;;;;;;;;;;;
2022/10/19 17:04:24;;;;;;;7.5;6.2;;;;;;;;;;;;;
2022/10/19 17:06:49;;;;;;;11.3;7.1;;;;;;;;;;;;;
2022/10/19 17:09:14;;;;;;;10.6;6.6;;;;;;;;;;;;;
2022/10/19 17:11:40;;;;;;;8.6;6.3;;;;;;;;;;;;;
2022/10/19 17:14:06;;;;;;;9.2;6.5;;;;;;;;;;;;;
2022/10/19 17:16:32;;;;;;;10.2;6.8;;;;;;;;;;;;;
2022/10/19 17:18:57;;;;;;;11.8;8.2;;;;;;;;;;;;;
2022/10/19 17:21:23;;;;;;;11.4;7.3;;;;;;;;;;;;;
2022/10/19 17:23:48;;;;;;;9.8;7.1;;;;;;;;;;;;;
2022/10/19 17:26:14;;;;;;;10.1;7.6;;;;;;;;;;;;;
2022/10/19 17:28:39;;;;;;;8.1;6.2;;;;;;;;;;;;;
2022/10/19 17:31:04;;;;;;;7.9;5.4;;;;;;;;;;;;;
2022/10/19 17:33:29;;;;;;;7.1;5.4;;;;;;;;;;;;;
2022/10/19 17:35:56;;;;;;;10.2;5;;;;;;;;;;;;;
2022/10/19 17:38:21;;;;;;;9.6;5.2;;;;;;;;;;;;;
2022/10/19 17:40:49;;;;;;;7.3;4.9;;;;;;;;;;;;;
2022/10/19 17:43:13;;;;;;;6.6;4.5;;;;;;;;;;;;;
2022/10/19 17:45:39;;;;;;;7.5;4.8;;;;;;;;;;;;;
2022/10/19 17:48:04;;;;;;;7.7;4.4;;;;;;;;;;;;;
2022/10/19 17:50:30;;;;;;;7.6;4.7;;;;;;;;;;;;;
2022/10/19 17:52:55;;;;;;;7.6;4.4;;;;;;;;;;;;;
2022/10/19 17:55:22;;;;;;;7.6;4.7;;;;;;;;;;;;;
2022/10/19 17:57:47;;;;;;;9.6;4.6;;;;;;;;;;;;;
2022/10/19 18:00:14;;;;;;;6;4.7;;;;;;;;;;;;;
2022/10/19 18:02:39;;;;;;;9.1;5.5;;;;;;;;;;;;;
2022/10/19 18:05:04;;;;;;;7.6;4.6;;;;;;;;;;;;;
2022/10/19 18:07:30;;;;;;;6.8;4.3;;;;;;;;;;;;;
2022/10/19 18:09:55;;;;;;;27.2;16.7;;;;;;;;;;;;;
2022/10/19 18:12:21;;;;;;;7.8;5.1;;;;;;;;;;;;;
2022/10/19 18:14:47;;;;;;;7.2;4.2;;;;;;;;;;;;;
2022/10/19 18:17:12;;;;;;;8.2;6.1;;;;;;;;;;;;;
2022/10/19 18:19:37;;;;;;;25.2;16;;;;;;;;;;;;;
2022/10/19 18:22:02;;;;;;;8.5;5.2;;;;;;;;;;;;;
2022/10/19 18:24:28;;;;;;;7;5.3;;;;;;;;;;;;;
2022/10/19 18:26:53;;;;;;;5.8;4;;;;;;;;;;;;;
2022/10/19 18:29:19;;;;;;;6.9;4;;;;;;;;;;;;;
2022/10/19 18:31:47;;;;;;;7.2;4.2;;;;;;;;;;;;;
2022/10/19 18:34:09;;;;;;;8;4.1;;;;;;;;;;;;;
2022/10/19 18:36:35;;;;;;;6.7;4.3;;;;;;;;;;;;;
2022/10/19 18:39:00;;;;;;;9.1;4.9;;;;;;;;;;;;;
2022/10/19 18:41:27;;;;;;;18.5;11.5;;;;;;;;;;;;;
2022/10/19 18:43:52;;;;;;;9.3;6.2;;;;;;;;;;;;;
2022/10/19 18:46:19;;;;;;;14.1;8.6;;;;;;;;;;;;;
2022/10/19 18:48:45;;;;;;;15.4;9.3;;;;;;;;;;;;;
2022/10/19 18:51:10;;;;;;;7.8;5.6;;;;;;;;;;;;;
2022/10/19 18:53:35;;;;;;;7;5;;;;;;;;;;;;;
2022/10/19 18:56:00;;;;;;;7.7;4.3;;;;;;;;;;;;;
2022/10/19 18:58:25;;;;;;;15.5;9.7;;;;;;;;;;;;;
2022/10/19 19:00:50;;;;;;;25.1;14.2;;;;;;;;;;;;;
2022/10/19 19:03:16;;;;;;;16.5;10.4;;;;;;;;;;;;;
2022/10/19 19:05:41;;;;;;;13.7;8.6;;;;;;;;;;;;;
2022/10/19 19:08:06;;;;;;;14;8.3;;;;;;;;;;;;;
2022/10/19 19:10:31;;;;;;;10.7;7;;;;;;;;;;;;;
2022/10/19 19:12:56;;;;;;;8.6;5.7;;;;;;;;;;;;;
2022/10/19 19:15:21;;;;;;;10.3;6.2;;;;;;;;;;;;;
2022/10/19 19:17:49;;;;;;;10.4;6.6;;;;;;;;;;;;;
2022/10/19 19:20:14;;;;;;;10;6.6;;;;;;;;;;;;;
2022/10/19 19:22:41;;;;;;;14.8;6.7;;;;;;;;;;;;;
2022/10/19 19:25:06;;;;;;;13.4;8.7;;;;;;;;;;;;;
2022/10/19 19:27:31;;;;;;;9.8;6.5;;;;;;;;;;;;;
2022/10/19 19:29:56;;;;;;;9.8;6;;;;;;;;;;;;;